Time;durP1;ratioP1;P1;durP2;ratioP2;P2;SDS_P1;SDS_P2;PMS_P1;PMS_P2;Temp;Humidity;BMP_temperature;BMP_pressure;BME280_temperature;BME280_humidity;BME280_pressure;Samples;Min_cycle;Max_cycle;Signal;HPM_P1;HPM_P2
2022/04/24 11:28:12;;;;;;;13.50;9.80;;;;;;;;;;6764202;19;50691;-77
2022/04/24 11:30:38;;;;;;;14.95;10.93;;;;;;;;;;7346511;19;20055;-75
2022/04/24 11:33:05;;;;;;;14.52;10.07;;;;;;;;;;7323473;19;20074;-76
2022/04/24 11:35:31;;;;;;;14.50;10.32;;;;;;;;;;7325329;19;20073;-77
2022/04/24 11:37:57;;;;;;;13.85;9.07;;;;;;;;;;7352340;19;20307;-77
2022/04/24 11:40:22;;;;;;;13.93;8.88;;;;;;;;;;7342978;19;19994;-77
2022/04/24 11:42:48;;;;;;;13.10;9.45;;;;;;;;;;7348931;19;20803;-76
2022/04/24 11:50:51;;;;;;;15.25;10.50;;;;;;;;;;7330731;19;20035;-76
2022/04/24 11:53:20;;;;;;;15.18;10.40;;;;;;;;;;7348444;19;20541;-75
2022/04/24 11:56:01;;;;;;;16.08;10.93;;;;;;;;;;7323546;19;20459;-76
2022/04/24 11:58:26;;;;;;;15.20;11.80;;;;;;;;;;7330333;19;20030;-76
2022/04/24 12:00:52;;;;;;;13.15;10.13;;;;;;;;;;7339589;19;19998;-76
2022/04/24 12:03:17;;;;;;;15.15;10.35;;;;;;;;;;7341551;19;21059;-77
2022/04/24 12:05:42;;;;;;;15.05;10.57;;;;;;;;;;7341745;19;20551;-76
2022/04/24 12:08:11;;;;;;;15.60;10.45;;;;;;;;;;7351813;19;20633;-77
2022/04/24 12:10:42;;;;;;;15.85;10.20;;;;;;;;;;7354488;19;20007;-76
2022/04/24 12:13:08;;;;;;;14.45;11.13;;;;;;;;;;7354817;19;20014;-76
2022/04/24 12:15:34;;;;;;;15.55;10.02;;;;;;;;;;7352793;19;20491;-77
2022/04/24 12:18:00;;;;;;;13.82;9.68;;;;;;;;;;7347931;19;20432;-77
2022/04/24 12:20:39;;;;;;;16.23;9.90;;;;;;;;;;7360447;19;20010;-77
2022/04/24 12:23:08;;;;;;;14.45;9.57;;;;;;;;;;7334458;19;20693;-76
2022/04/24 12:25:44;;;;;;;12.60;9.35;;;;;;;;;;7355683;19;20546;-76
2022/04/24 12:28:10;;;;;;;15.25;9.98;;;;;;;;;;7352051;19;20025;-77
2022/04/24 12:30:35;;;;;;;15.48;9.18;;;;;;;;;;7348223;19;20014;-76
2022/04/24 12:33:07;;;;;;;13.05;8.65;;;;;;;;;;7346737;19;20015;-76
2022/04/24 12:35:33;;;;;;;12.07;8.68;;;;;;;;;;7345452;19;20003;-77
2022/04/24 12:37:59;;;;;;;12.85;8.70;;;;;;;;;;7353672;19;20022;-76
2022/04/24 12:40:24;;;;;;;14.30;9.50;;;;;;;;;;7356220;19;20024;-76
2022/04/24 12:42:50;;;;;;;14.60;8.40;;;;;;;;;;7348644;19;20011;-76
2022/04/24 12:45:15;;;;;;;14.65;9.68;;;;;;;;;;7343872;19;20255;-77
2022/04/24 12:47:40;;;;;;;13.70;9.07;;;;;;;;;;7343232;19;20089;-76
2022/04/24 12:50:06;;;;;;;12.67;8.43;;;;;;;;;;7332439;19;20243;-77
2022/04/24 12:52:31;;;;;;;12.88;9.13;;;;;;;;;;7351813;19;20018;-78
2022/04/24 12:54:56;;;;;;;14.17;8.67;;;;;;;;;;7351224;19;20113;-76
2022/04/24 12:57:21;;;;;;;13.37;8.53;;;;;;;;;;7343985;19;20252;-76
2022/04/24 12:59:46;;;;;;;13.80;8.70;;;;;;;;;;7346075;19;20259;-77
2022/04/24 13:02:13;;;;;;;15.77;10.00;;;;;;;;;;7356302;19;20010;-76
2022/04/24 13:04:39;;;;;;;15.40;9.07;;;;;;;;;;7350409;19;20608;-76
2022/04/24 13:07:04;;;;;;;14.77;10.00;;;;;;;;;;7358118;19;20408;-76
2022/04/24 13:09:29;;;;;;;14.73;9.68;;;;;;;;;;7347548;19;20559;-76
2022/04/24 13:11:55;;;;;;;12.75;9.43;;;;;;;;;;7352770;19;20461;-77
2022/04/24 13:14:21;;;;;;;12.80;8.63;;;;;;;;;;7322907;19;20665;-76
2022/04/24 13:19:30;;;;;;;;;;;;;;;;;;7338209;19;20096;-77
2022/04/24 13:21:55;;;;;;;13.38;8.63;;;;;;;;;;7354293;19;20267;-77
2022/04/24 13:24:21;;;;;;;15.27;8.27;;;;;;;;;;7329055;19;20011;-76
2022/04/24 13:26:46;;;;;;;12.52;8.15;;;;;;;;;;7307788;19;20211;-77
2022/04/24 13:29:11;;;;;;;11.05;7.97;;;;;;;;;;7354409;19;20470;-77
2022/04/24 13:31:36;;;;;;;14.63;8.20;;;;;;;;;;7338725;19;20002;-79
2022/04/24 13:34:01;;;;;;;15.10;8.40;;;;;;;;;;7357781;19;20934;-80
2022/04/24 13:36:27;;;;;;;12.48;7.93;;;;;;;;;;7361775;19;20051;-78
2022/04/24 13:38:52;;;;;;;12.18;8.05;;;;;;;;;;7352458;19;20156;-80
2022/04/24 13:41:18;;;;;;;11.65;7.22;;;;;;;;;;7336512;19;20010;-80
2022/04/24 13:43:43;;;;;;;13.45;7.30;;;;;;;;;;7361291;19;20009;-79
2022/04/24 13:46:12;;;;;;;9.17;6.00;;;;;;;;;;7343171;19;20010;-80
2022/04/24 13:48:37;;;;;;;10.68;6.60;;;;;;;;;;7356849;19;20606;-79
2022/04/24 13:51:04;;;;;;;9.18;6.22;;;;;;;;;;7364106;19;19999;-79
2022/04/24 13:53:29;;;;;;;10.38;6.63;;;;;;;;;;7349571;19;20010;-79
2022/04/24 13:55:55;;;;;;;10.43;6.57;;;;;;;;;;7352706;19;20007;-79
2022/04/24 13:58:21;;;;;;;9.23;5.88;;;;;;;;;;7364437;19;20113;-79
2022/04/24 14:00:46;;;;;;;11.50;6.00;;;;;;;;;;7357581;19;20602;-79
2022/04/24 14:03:15;;;;;;;10.02;5.88;;;;;;;;;;7347288;19;20494;-79
2022/04/24 14:05:40;;;;;;;11.75;5.28;;;;;;;;;;7340413;19;20788;-79
2022/04/24 14:08:06;;;;;;;8.98;5.05;;;;;;;;;;7366632;19;20443;-79
2022/04/24 14:10:31;;;;;;;7.32;5.00;;;;;;;;;;7341520;19;20021;-79
2022/04/24 14:12:56;;;;;;;10.60;5.45;;;;;;;;;;7366266;19;20015;-80
2022/04/24 14:15:25;;;;;;;10.37;5.17;;;;;;;;;;7351510;19;20676;-80
2022/04/24 14:17:55;;;;;;;8.13;5.03;;;;;;;;;;7364345;19;20286;-80
2022/04/24 14:20:20;;;;;;;9.05;4.97;;;;;;;;;;7360679;19;20021;-79
2022/04/24 14:22:45;;;;;;;9.48;5.28;;;;;;;;;;7365092;19;20014;-80
2022/04/24 14:25:10;;;;;;;7.10;4.83;;;;;;;;;;7362374;19;19990;-80
2022/04/24 14:27:36;;;;;;;9.83;5.80;;;;;;;;;;7365078;19;20255;-80
2022/04/24 14:30:01;;;;;;;8.18;5.00;;;;;;;;;;7360179;19;20254;-80
2022/04/24 14:32:26;;;;;;;7.90;5.05;;;;;;;;;;7335373;19;20014;-79
2022/04/24 14:34:52;;;;;;;8.90;4.97;;;;;;;;;;7354320;19;20346;-80
2022/04/24 14:37:17;;;;;;;7.57;4.15;;;;;;;;;;7358224;19;20015;-79
2022/04/24 14:39:42;;;;;;;8.35;4.78;;;;;;;;;;7322435;19;20015;-79
2022/04/24 14:42:08;;;;;;;12.25;6.75;;;;;;;;;;7349361;19;20468;-80
2022/04/24 14:44:33;;;;;;;9.48;5.30;;;;;;;;;;7345991;19;20114;-80
2022/04/24 14:57:58;;;;;;;8.32;4.40;;;;;;;;;;7334306;19;20501;-80
2022/04/24 15:00:25;;;;;;;7.47;4.22;;;;;;;;;;7349681;19;20062;-80
2022/04/24 15:02:51;;;;;;;7.35;4.78;;;;;;;;;;7355601;19;20829;-80
2022/04/24 15:05:16;;;;;;;7.30;4.82;;;;;;;;;;7356519;19;20018;-80
2022/04/24 15:07:41;;;;;;;6.97;4.40;;;;;;;;;;7358804;19;20011;-80
2022/04/24 15:10:06;;;;;;;8.33;4.40;;;;;;;;;;7352936;19;20251;-80
2022/04/24 15:12:32;;;;;;;8.98;4.60;;;;;;;;;;7358315;19;20010;-80
2022/04/24 15:14:57;;;;;;;9.00;4.13;;;;;;;;;;7351903;19;20454;-80
2022/04/24 15:17:22;;;;;;;9.03;4.83;;;;;;;;;;7335624;19;20363;-80
2022/04/24 15:19:47;;;;;;;8.35;4.65;;;;;;;;;;7345724;19;20267;-79
2022/04/24 15:22:13;;;;;;;7.07;4.55;;;;;;;;;;7356879;19;20022;-80
2022/04/24 15:24:38;;;;;;;7.43;4.55;;;;;;;;;;7330745;19;20002;-79
2022/04/24 15:27:04;;;;;;;7.75;5.15;;;;;;;;;;7371996;19;20047;-79
2022/04/24 15:29:29;;;;;;;6.75;4.30;;;;;;;;;;7370364;19;20015;-79
2022/04/24 15:31:55;;;;;;;8.20;4.78;;;;;;;;;;7367032;19;20018;-80
2022/04/24 15:34:22;;;;;;;6.95;4.10;;;;;;;;;;7364615;19;20334;-80
2022/04/24 15:36:50;;;;;;;7.25;4.50;;;;;;;;;;7367538;19;20025;-79
2022/04/24 15:39:17;;;;;;;8.73;5.20;;;;;;;;;;7367408;19;20013;-80
2022/04/24 15:41:42;;;;;;;6.90;4.80;;;;;;;;;;7373690;19;20757;-80
2022/04/24 15:44:07;;;;;;;8.13;5.03;;;;;;;;;;7366905;19;20268;-80
2022/04/24 15:46:33;;;;;;;7.07;4.60;;;;;;;;;;7369903;19;20006;-80
2022/04/24 15:48:58;;;;;;;10.35;5.32;;;;;;;;;;7364778;19;20245;-80
2022/04/24 15:51:24;;;;;;;10.43;5.70;;;;;;;;;;7369077;19;20006;-80
2022/04/24 15:53:49;;;;;;;11.38;6.22;;;;;;;;;;7374265;19;20266;-80
2022/04/24 15:56:14;;;;;;;8.70;6.18;;;;;;;;;;7364365;19;20017;-79
2022/04/24 15:58:40;;;;;;;10.97;6.73;;;;;;;;;;7373457;19;20018;-80
2022/04/24 16:01:06;;;;;;;9.43;6.43;;;;;;;;;;7370419;19;20255;-80
2022/04/24 16:03:31;;;;;;;10.75;6.82;;;;;;;;;;7368574;19;20804;-80
2022/04/24 16:05:58;;;;;;;13.53;8.20;;;;;;;;;;7375271;19;20002;-81
2022/04/24 16:08:24;;;;;;;13.27;7.93;;;;;;;;;;7374467;19;20339;-79
2022/04/24 16:10:50;;;;;;;13.70;8.40;;;;;;;;;;7370368;19;20507;-80
2022/04/24 16:13:15;;;;;;;13.68;7.95;;;;;;;;;;7376599;19;20070;-79
2022/04/24 16:15:43;;;;;;;12.95;8.07;;;;;;;;;;7369602;19;20007;-79
2022/04/24 16:18:08;;;;;;;12.52;7.60;;;;;;;;;;7361143;19;20006;-80
2022/04/24 16:20:34;;;;;;;13.40;8.00;;;;;;;;;;7372258;19;20014;-80
2022/04/24 16:22:59;;;;;;;14.60;7.93;;;;;;;;;;7364790;19;20070;-79
2022/04/24 16:25:24;;;;;;;11.13;7.60;;;;;;;;;;7360377;19;20338;-79
2022/04/24 16:27:49;;;;;;;13.93;9.10;;;;;;;;;;7358304;19;20174;-80
2022/04/24 16:30:15;;;;;;;12.40;8.48;;;;;;;;;;7361301;19;20467;-79
2022/04/24 16:32:40;;;;;;;14.20;9.13;;;;;;;;;;7365690;19;20014;-80
2022/04/24 16:35:07;;;;;;;14.10;10.35;;;;;;;;;;7357304;19;20013;-79
2022/04/24 16:37:32;;;;;;;13.23;9.30;;;;;;;;;;7360011;19;20014;-79
2022/04/24 16:39:58;;;;;;;14.30;9.73;;;;;;;;;;7359706;19;20119;-80
2022/04/24 16:42:23;;;;;;;17.35;9.77;;;;;;;;;;7361640;19;20007;-79
2022/04/24 16:44:48;;;;;;;11.88;8.57;;;;;;;;;;7361440;19;19999;-79
2022/04/24 16:47:13;;;;;;;12.43;9.00;;;;;;;;;;7356146;19;20010;-79
2022/04/24 16:49:39;;;;;;;13.80;8.77;;;;;;;;;;7372578;19;19999;-79
2022/04/24 17:00:16;;;;;;;15.13;8.82;;;;;;;;;;7371128;19;20027;-78
2022/04/24 17:02:42;;;;;;;11.90;8.45;;;;;;;;;;7372343;19;20011;-79
2022/04/24 17:05:07;;;;;;;12.52;8.32;;;;;;;;;;7379294;19;20003;-80
2022/04/24 17:07:33;;;;;;;12.45;8.18;;;;;;;;;;7381309;19;20384;-78
2022/04/24 17:09:59;;;;;;;14.68;8.73;;;;;;;;;;7379925;19;20022;-78
2022/04/24 17:12:26;;;;;;;13.63;9.23;;;;;;;;;;7374493;19;20011;-78
2022/04/24 17:14:51;;;;;;;11.73;8.43;;;;;;;;;;7365408;19;20007;-78
2022/04/24 17:17:18;;;;;;;14.07;8.35;;;;;;;;;;7351303;19;20010;-77
2022/04/24 17:19:44;;;;;;;11.45;8.27;;;;;;;;;;7358897;19;20355;-78
2022/04/24 17:22:09;;;;;;;14.10;8.77;;;;;;;;;;7362500;19;20021;-78
2022/04/24 17:24:36;;;;;;;12.85;8.75;;;;;;;;;;7355961;19;20002;-79
2022/04/24 17:27:01;;;;;;;15.48;8.23;;;;;;;;;;7362563;19;20052;-80
2022/04/24 17:29:27;;;;;;;12.65;8.38;;;;;;;;;;7360227;19;20006;-79
2022/04/24 17:31:54;;;;;;;14.43;8.82;;;;;;;;;;7344369;19;20014;-78
2022/04/24 17:34:19;;;;;;;16.25;8.38;;;;;;;;;;7350822;19;20011;-79
2022/04/24 17:36:44;;;;;;;13.30;8.20;;;;;;;;;;7339476;19;20442;-79
2022/04/24 17:39:10;;;;;;;15.93;8.77;;;;;;;;;;7343996;19;20231;-80
2022/04/24 17:41:35;;;;;;;13.10;8.57;;;;;;;;;;7329436;19;20014;-79
2022/04/24 17:44:00;;;;;;;14.00;8.80;;;;;;;;;;7366551;19;20262;-79
2022/04/24 17:46:27;;;;;;;14.60;10.10;;;;;;;;;;7353946;19;20010;-78
2022/04/24 17:48:53;;;;;;;13.02;8.75;;;;;;;;;;7345838;19;20010;-79
2022/04/24 17:51:18;;;;;;;14.88;8.57;;;;;;;;;;7351773;19;20015;-79
2022/04/24 17:53:43;;;;;;;13.60;8.23;;;;;;;;;;7348222;19;20015;-79
2022/04/24 17:56:09;;;;;;;15.35;9.02;;;;;;;;;;7376085;19;20494;-79
2022/04/24 17:58:34;;;;;;;12.93;8.93;;;;;;;;;;7378118;19;20010;-79
2022/04/24 18:00:59;;;;;;;14.85;8.63;;;;;;;;;;7369843;19;20259;-79
2022/04/24 18:03:26;;;;;;;12.32;8.60;;;;;;;;;;7372059;19;20360;-79
2022/04/24 18:05:52;;;;;;;12.88;8.05;;;;;;;;;;7373316;19;20009;-79
2022/04/24 18:08:17;;;;;;;11.48;8.45;;;;;;;;;;7350185;19;20018;-78
2022/04/24 18:10:42;;;;;;;13.13;8.55;;;;;;;;;;7348755;19;19994;-78
2022/04/24 18:13:07;;;;;;;15.68;10.60;;;;;;;;;;7357887;19;20026;-78
2022/04/24 18:15:33;;;;;;;14.40;8.48;;;;;;;;;;7323658;19;20327;-78
2022/04/24 18:17:59;;;;;;;17.25;9.20;;;;;;;;;;7351175;19;20034;-77
2022/04/24 18:20:25;;;;;;;13.27;8.57;;;;;;;;;;7358287;19;19999;-78
2022/04/24 18:22:50;;;;;;;13.18;9.02;;;;;;;;;;7355346;19;20323;-78
2022/04/24 18:25:15;;;;;;;15.90;8.98;;;;;;;;;;7366244;19;20014;-79
2022/04/24 18:27:41;;;;;;;14.65;9.02;;;;;;;;;;7362543;19;20011;-78
2022/04/24 18:30:07;;;;;;;14.70;8.93;;;;;;;;;;7367672;19;20017;-78
2022/04/24 18:32:32;;;;;;;13.02;8.23;;;;;;;;;;7373883;19;20014;-79
2022/04/24 18:34:57;;;;;;;13.50;8.40;;;;;;;;;;7383200;19;19994;-80
2022/04/24 18:37:38;;;;;;;12.73;9.00;;;;;;;;;;7377361;19;20011;-79
2022/04/24 18:40:04;;;;;;;14.65;8.52;;;;;;;;;;7384172;19;20339;-79
2022/04/24 18:42:29;;;;;;;12.50;8.25;;;;;;;;;;7379273;19;20010;-79
2022/04/24 18:44:55;;;;;;;21.45;9.57;;;;;;;;;;7372891;19;20018;-79
2022/04/24 18:47:22;;;;;;;13.25;9.23;;;;;;;;;;7368437;19;20019;-79
2022/04/24 18:49:47;;;;;;;16.33;8.80;;;;;;;;;;7372755;19;20018;-79
2022/04/24 18:52:12;;;;;;;15.73;10.20;;;;;;;;;;7380510;19;20332;-79
2022/04/24 18:54:38;;;;;;;17.50;9.80;;;;;;;;;;7377441;19;20015;-79
2022/04/24 18:57:04;;;;;;;16.40;10.00;;;;;;;;;;7360648;19;20715;-78
2022/04/24 18:59:30;;;;;;;19.58;11.10;;;;;;;;;;7356533;19;20328;-78
2022/04/24 19:01:55;;;;;;;17.02;9.55;;;;;;;;;;7355135;19;20457;-78
2022/04/24 19:12:32;;;;;;;13.65;9.38;;;;;;;;;;7376757;19;20397;-79
2022/04/24 19:15:00;;;;;;;13.32;9.30;;;;;;;;;;7376203;19;20002;-79
2022/04/24 19:17:26;;;;;;;14.65;9.30;;;;;;;;;;7372903;19;20029;-80
2022/04/24 19:19:51;;;;;;;14.27;9.27;;;;;;;;;;7376093;19;20439;-79
2022/04/24 19:22:16;;;;;;;19.97;12.50;;;;;;;;;;7375810;19;20082;-79
2022/04/24 19:24:41;;;;;;;16.23;10.23;;;;;;;;;;7360186;19;20259;-79
2022/04/24 19:27:07;;;;;;;18.05;9.27;;;;;;;;;;7344774;19;20014;-78
2022/04/24 19:29:32;;;;;;;14.13;9.63;;;;;;;;;;7348873;19;20006;-79
2022/04/24 19:31:57;;;;;;;15.60;9.35;;;;;;;;;;7372008;19;20282;-79
2022/04/24 19:34:22;;;;;;;12.68;8.70;;;;;;;;;;7375693;19;20097;-79
2022/04/24 19:36:48;;;;;;;14.60;8.43;;;;;;;;;;7351240;19;20035;-79
2022/04/24 19:39:13;;;;;;;11.10;8.13;;;;;;;;;;7379531;19;20458;-79
2022/04/24 19:41:38;;;;;;;13.13;8.30;;;;;;;;;;7350557;19;20246;-78
2022/04/24 19:44:04;;;;;;;13.30;8.68;;;;;;;;;;7358033;19;20007;-79
2022/04/24 19:46:29;;;;;;;14.75;9.30;;;;;;;;;;7350615;19;20023;-78
2022/04/24 19:51:38;;;;;;;13.30;8.63;;;;;;;;;;7333590;19;20047;-79
2022/04/24 19:54:04;;;;;;;14.30;8.40;;;;;;;;;;7377273;19;20015;-78
2022/04/24 19:56:29;;;;;;;11.93;8.13;;;;;;;;;;7370825;19;20842;-78
2022/04/24 19:58:54;;;;;;;14.47;8.83;;;;;;;;;;7352002;19;20504;-78
2022/04/24 20:01:19;;;;;;;15.98;8.75;;;;;;;;;;7330232;19;20247;-78
2022/04/24 20:03:45;;;;;;;12.60;8.18;;;;;;;;;;7347194;19;20763;-79
2022/04/24 20:06:11;;;;;;;12.48;8.18;;;;;;;;;;7348643;19;20579;-78
2022/04/24 20:08:36;;;;;;;14.63;8.85;;;;;;;;;;7346435;19;20483;-79
2022/04/24 20:11:02;;;;;;;12.73;8.05;;;;;;;;;;7356056;19;20006;-79
2022/04/24 20:13:27;;;;;;;12.47;8.67;;;;;;;;;;7371183;19;20478;-79
2022/04/24 20:15:52;;;;;;;13.00;8.48;;;;;;;;;;7360206;19;20291;-79
2022/04/24 20:18:19;;;;;;;14.38;8.38;;;;;;;;;;7358326;19;20138;-79
2022/04/24 20:20:44;;;;;;;14.13;8.45;;;;;;;;;;7348134;19;20015;-79
2022/04/24 20:23:10;;;;;;;12.95;8.15;;;;;;;;;;7360014;19;20457;-79
2022/04/24 20:25:35;;;;;;;11.93;8.45;;;;;;;;;;7350651;19;20005;-79
2022/04/24 20:28:01;;;;;;;12.38;6.88;;;;;;;;;;7347404;19;20036;-79
2022/04/24 20:30:26;;;;;;;11.00;7.15;;;;;;;;;;7354333;19;20466;-79
2022/04/24 20:32:52;;;;;;;12.18;7.32;;;;;;;;;;7347826;19;20074;-79
2022/04/24 20:35:18;;;;;;;13.23;8.13;;;;;;;;;;7345180;19;21060;-78
2022/04/24 20:37:43;;;;;;;14.23;8.57;;;;;;;;;;7355886;19;20517;-79
2022/04/24 20:40:12;;;;;;;12.20;8.10;;;;;;;;;;7363849;19;20918;-78
2022/04/24 20:42:38;;;;;;;14.40;8.70;;;;;;;;;;7375211;19;20014;-79
2022/04/24 20:45:03;;;;;;;11.07;7.85;;;;;;;;;;7384742;19;20037;-79
2022/04/24 20:47:29;;;;;;;12.75;8.52;;;;;;;;;;7369608;19;20015;-79
2022/04/24 20:49:54;;;;;;;15.67;8.93;;;;;;;;;;7373009;19;20027;-80
2022/04/24 20:52:19;;;;;;;16.23;9.43;;;;;;;;;;7369848;19;20589;-79
2022/04/24 20:54:45;;;;;;;14.20;9.18;;;;;;;;;;7372694;19;20698;-79
2022/04/24 20:57:10;;;;;;;11.85;8.52;;;;;;;;;;7376885;19;20019;-79
2022/04/24 20:59:36;;;;;;;13.20;9.38;;;;;;;;;;7378801;19;20006;-79
2022/04/24 21:02:02;;;;;;;13.18;9.20;;;;;;;;;;7368309;19;20475;-78
2022/04/24 21:04:29;;;;;;;14.52;9.32;;;;;;;;;;7371334;19;20347;-79
2022/04/24 21:06:54;;;;;;;13.57;8.93;;;;;;;;;;7375184;19;20015;-78
2022/04/24 21:09:22;;;;;;;13.57;9.30;;;;;;;;;;7366101;19;20013;-79
2022/04/24 21:11:48;;;;;;;12.35;8.57;;;;;;;;;;7378014;19;20272;-78
2022/04/24 21:14:13;;;;;;;14.13;9.20;;;;;;;;;;7375101;19;20518;-79
2022/04/24 21:16:39;;;;;;;12.77;8.30;;;;;;;;;;7363893;19;20002;-78
2022/04/24 21:19:05;;;;;;;11.60;8.07;;;;;;;;;;7323098;19;21187;-78
2022/04/24 21:21:30;;;;;;;14.40;8.38;;;;;;;;;;7371856;19;20035;-78
2022/04/24 21:23:55;;;;;;;16.70;8.65;;;;;;;;;;7363803;19;20034;-79
2022/04/24 21:26:20;;;;;;;15.98;8.63;;;;;;;;;;7355592;19;20019;-77
2022/04/24 21:28:46;;;;;;;11.40;7.95;;;;;;;;;;7376353;19;20043;-78
2022/04/24 21:31:11;;;;;;;12.02;8.48;;;;;;;;;;7368710;19;20273;-77
2022/04/24 21:33:37;;;;;;;13.50;9.27;;;;;;;;;;7363177;19;20011;-78
2022/04/24 21:36:02;;;;;;;14.30;8.90;;;;;;;;;;7359959;19;20017;-78
2022/04/24 21:38:27;;;;;;;14.48;9.00;;;;;;;;;;7358075;19;20630;-78
2022/04/24 21:40:53;;;;;;;17.95;9.77;;;;;;;;;;7374427;19;20005;-78
2022/04/24 21:43:18;;;;;;;14.05;9.63;;;;;;;;;;7356745;19;20010;-77
2022/04/24 21:45:43;;;;;;;17.95;10.32;;;;;;;;;;7367130;19;20543;-78
2022/04/24 21:48:08;;;;;;;14.70;9.53;;;;;;;;;;7364363;19;20031;-77
2022/04/24 21:50:34;;;;;;;13.60;9.32;;;;;;;;;;7373043;19;20260;-79
2022/04/24 21:52:59;;;;;;;17.05;10.50;;;;;;;;;;7378747;19;20018;-78
2022/04/24 21:55:25;;;;;;;14.73;10.00;;;;;;;;;;7378076;19;20044;-78
2022/04/24 21:57:50;;;;;;;14.68;9.52;;;;;;;;;;7378401;19;20271;-78
2022/04/24 22:05:41;;;;;;;;;;;;;;;;;;7364444;19;20016;-77
2022/04/24 22:08:07;;;;;;;16.33;10.80;;;;;;;;;;7361235;19;20243;-77
2022/04/24 22:10:32;;;;;;;17.67;10.80;;;;;;;;;;7368460;19;19995;-77
2022/04/24 22:12:57;;;;;;;16.17;10.47;;;;;;;;;;7377508;19;20026;-78
2022/04/24 22:15:22;;;;;;;17.40;10.07;;;;;;;;;;7373105;19;20256;-78
2022/04/24 22:17:48;;;;;;;13.80;9.82;;;;;;;;;;7371602;19;20245;-78
2022/04/24 22:20:13;;;;;;;14.38;10.13;;;;;;;;;;7378964;19;20010;-77
2022/04/24 22:25:22;;;;;;;18.17;11.98;;;;;;;;;;7377911;19;20036;-77
2022/04/24 22:27:47;;;;;;;16.83;11.20;;;;;;;;;;7381954;19;20477;-78
2022/04/24 22:30:13;;;;;;;17.43;10.33;;;;;;;;;;7377567;19;20309;-78
2022/04/24 22:32:38;;;;;;;21.57;10.87;;;;;;;;;;7378506;19;20240;-78
2022/04/24 22:35:03;;;;;;;16.10;11.23;;;;;;;;;;7375889;19;20860;-77
2022/04/24 22:37:29;;;;;;;15.85;10.90;;;;;;;;;;7375166;19;20294;-77
2022/04/24 22:39:54;;;;;;;18.13;11.55;;;;;;;;;;7373331;19;19994;-78
2022/04/24 22:42:20;;;;;;;16.10;10.30;;;;;;;;;;7383932;19;20021;-77
2022/04/24 22:44:47;;;;;;;15.88;10.60;;;;;;;;;;7380330;19;19998;-78
2022/04/24 22:47:12;;;;;;;16.10;11.13;;;;;;;;;;7373075;19;20407;-77
2022/04/24 22:49:38;;;;;;;17.67;10.93;;;;;;;;;;7377382;19;20667;-77
2022/04/24 22:52:03;;;;;;;16.92;11.57;;;;;;;;;;7377049;19;20734;-77
2022/04/24 22:54:28;;;;;;;20.98;12.05;;;;;;;;;;7377185;19;20467;-77
2022/04/24 22:56:53;;;;;;;17.17;11.27;;;;;;;;;;7373478;19;20429;-78
2022/04/24 22:59:19;;;;;;;17.37;11.77;;;;;;;;;;7372960;19;20523;-78
2022/04/24 23:01:44;;;;;;;15.32;11.13;;;;;;;;;;7370029;19;20270;-77
2022/04/24 23:04:09;;;;;;;15.77;11.30;;;;;;;;;;7371883;19;20022;-78
2022/04/24 23:06:34;;;;;;;17.63;12.10;;;;;;;;;;7376979;19;20074;-77
2022/04/24 23:09:00;;;;;;;19.83;12.37;;;;;;;;;;7372408;19;20247;-78
2022/04/24 23:11:25;;;;;;;14.95;10.65;;;;;;;;;;7365187;19;20255;-77
2022/04/24 23:13:51;;;;;;;16.65;11.02;;;;;;;;;;7359589;19;20847;-77
2022/04/24 23:16:16;;;;;;;15.25;10.55;;;;;;;;;;7355942;19;20515;-77
2022/04/24 23:24:09;;;;;;;15.82;11.40;;;;;;;;;;7362085;19;20023;-77
2022/04/24 23:26:34;;;;;;;15.60;10.50;;;;;;;;;;7353638;19;20015;-76
2022/04/24 23:28:59;;;;;;;16.40;10.05;;;;;;;;;;7362105;19;20280;-77
2022/04/24 23:31:25;;;;;;;16.73;10.98;;;;;;;;;;7364320;19;20010;-76
2022/04/24 23:33:50;;;;;;;17.58;10.60;;;;;;;;;;7356389;19;20736;-77
2022/04/24 23:36:16;;;;;;;16.75;12.40;;;;;;;;;;7358439;19;20011;-76
2022/04/24 23:38:41;;;;;;;17.88;11.65;;;;;;;;;;7366110;19;20002;-76
2022/04/24 23:41:07;;;;;;;17.83;12.75;;;;;;;;;;7361374;19;20509;-77
2022/04/24 23:43:32;;;;;;;18.58;12.07;;;;;;;;;;7357216;19;20022;-76
2022/04/24 23:45:58;;;;;;;18.80;12.02;;;;;;;;;;7363263;19;20535;-77
2022/04/24 23:48:23;;;;;;;17.45;12.27;;;;;;;;;;7359265;19;20023;-77
2022/04/24 23:50:48;;;;;;;19.80;13.02;;;;;;;;;;7363875;19;20105;-76
2022/04/24 23:53:13;;;;;;;17.48;11.63;;;;;;;;;;7361649;19;20522;-77
2022/04/24 23:55:39;;;;;;;17.10;11.73;;;;;;;;;;7356894;19;20006;-77
2022/04/24 23:58:04;;;;;;;18.33;11.38;;;;;;;;;;7362158;19;20279;-77
